sensor_id;sensor_type;location;lat;lon;timestamp;pressure;altitude;pressure_sealevel;temperature;humidity
77749;BME280;66938;52.084;5.228;2024-01-30T00:00:57;102698.0;;;8.51;100.0
77749;BME280;66938;52.084;5.228;2024-01-30T00:02:33;102694.0;;;8.51;100.0
77749;BME280;66938;52.084;5.228;2024-01-30T00:04:09;102695.0;;;8.48;100.0
77749;BME280;66938;52.084;5.228;2024-01-30T00:07:21;102693.0;;;8.5;100.0
77749;BME280;66938;52.084;5.228;2024-01-30T00:08:58;102694.0;;;8.48;100.0
77749;BME280;66938;52.084;5.228;2024-01-30T00:10:34;102693.0;;;8.48;100.0
77749;BME280;66938;52.084;5.228;2024-01-30T00:12:10;102694.0;;;8.48;100.0
77749;BME280;66938;52.084;5.228;2024-01-30T00:15:22;102693.0;;;8.52;100.0
77749;BME280;66938;52.084;5.228;2024-01-30T00:16:58;102692.0;;;8.57;100.0
77749;BME280;66938;52.084;5.228;2024-01-30T00:18:35;102695.0;;;8.64;100.0
77749;BME280;66938;52.084;5.228;2024-01-30T00:21:47;102691.00000000001;;;8.65;100.0
77749;BME280;66938;52.084;5.228;2024-01-30T00:23:24;102684.99999999999;;;8.67;100.0
77749;BME280;66938;52.084;5.228;2024-01-30T00:25:00;102684.99999999999;;;8.69;100.0
77749;BME280;66938;52.084;5.228;2024-01-30T00:28:12;102689.00000000001;;;8.75;100.0
77749;BME280;66938;52.084;5.228;2024-01-30T00:29:48;102688.00000000001;;;8.77;100.0
77749;BME280;66938;52.084;5.228;2024-01-30T00:31:24;102681.0;;;8.77;100.0
77749;BME280;66938;52.084;5.228;2024-01-30T00:34:36;102681.0;;;8.81;100.0
77749;BME280;66938;52.084;5.228;2024-01-30T00:36:13;102680.0;;;8.85;100.0
77749;BME280;66938;52.084;5.228;2024-01-30T00:37:49;102670.0;;;8.86;100.0
77749;BME280;66938;52.084;5.228;2024-01-30T00:39:25;102677.0;;;8.88;100.0
77749;BME280;66938;52.084;5.228;2024-01-30T00:42:40;102671.0;;;8.86;100.0
77749;BME280;66938;52.084;5.228;2024-01-30T00:44:16;102678.0;;;8.86;100.0
77749;BME280;66938;52.084;5.228;2024-01-30T00:45:53;102679.0;;;8.76;100.0
77749;BME280;66938;52.084;5.228;2024-01-30T00:49:04;102678.0;;;8.72;100.0
77749;BME280;66938;52.084;5.228;2024-01-30T00:50:41;102679.0;;;8.74;100.0
77749;BME280;66938;52.084;5.228;2024-01-30T00:52:17;102679.0;;;8.75;100.0
77749;BME280;66938;52.084;5.228;2024-01-30T00:55:29;102675.0;;;8.77;100.0
77749;BME280;66938;52.084;5.228;2024-01-30T00:57:05;102675.0;;;8.81;100.0
77749;BME280;66938;52.084;5.228;2024-01-30T00:58:41;102678.0;;;8.81;100.0
77749;BME280;66938;52.084;5.228;2024-01-30T01:00:18;102671.0;;;8.84;100.0
77749;BME280;66938;52.084;5.228;2024-01-30T01:03:33;102676.0;;;8.76;100.0
77749;BME280;66938;52.084;5.228;2024-01-30T01:05:09;102678.0;;;8.76;100.0
77749;BME280;66938;52.084;5.228;2024-01-30T01:06:45;102679.0;;;8.73;100.0
77749;BME280;66938;52.084;5.228;2024-01-30T01:09:57;102679.0;;;8.67;100.0
77749;BME280;66938;52.084;5.228;2024-01-30T01:11:33;102672.0;;;8.63;100.0
77749;BME280;66938;52.084;5.228;2024-01-30T01:13:09;102667.0;;;8.64;100.0
77749;BME280;66938;52.084;5.228;2024-01-30T01:16:22;102658.0;;;8.73;100.0
77749;BME280;66938;52.084;5.228;2024-01-30T01:17:58;102654.0;;;8.68;100.0
77749;BME280;66938;52.084;5.228;2024-01-30T01:19:34;102646.0;;;8.76;100.0
77749;BME280;66938;52.084;5.228;2024-01-30T01:21:10;102651.0;;;8.81;100.0
77749;BME280;66938;52.084;5.228;2024-01-30T01:24:22;102652.0;;;8.75;100.0
77749;BME280;66938;52.084;5.228;2024-01-30T01:26:01;102653.0;;;8.81;100.0
77749;BME280;66938;52.084;5.228;2024-01-30T01:27:37;102654.0;;;8.83;100.0
77749;BME280;66938;52.084;5.228;2024-01-30T01:30:50;102652.0;;;8.81;100.0
77749;BME280;66938;52.084;5.228;2024-01-30T01:32:26;102649.0;;;8.83;100.0
77749;BME280;66938;52.084;5.228;2024-01-30T01:34:02;102648.0;;;8.74;100.0
77749;BME280;66938;52.084;5.228;2024-01-30T01:37:14;102654.0;;;8.71;100.0
77749;BME280;66938;52.084;5.228;2024-01-30T01:38:50;102652.0;;;8.67;100.0
77749;BME280;66938;52.084;5.228;2024-01-30T01:40:27;102649.0;;;8.65;100.0
77749;BME280;66938;52.084;5.228;2024-01-30T01:43:39;102651.0;;;8.64;100.0
77749;BME280;66938;52.084;5.228;2024-01-30T01:45:16;102651.0;;;8.58;100.0
77749;BME280;66938;52.084;5.228;2024-01-30T01:46:52;102649.0;;;8.65;100.0
77749;BME280;66938;52.084;5.228;2024-01-30T01:48:29;102649.0;;;8.57;100.0
77749;BME280;66938;52.084;5.228;2024-01-30T01:51:42;102648.0;;;8.64;100.0
77749;BME280;66938;52.084;5.228;2024-01-30T01:53:18;102646.0;;;8.61;100.0
77749;BME280;66938;52.084;5.228;2024-01-30T01:54:54;102644.0;;;8.6;100.0
77749;BME280;66938;52.084;5.228;2024-01-30T01:58:09;102641.00000000001;;;8.59;100.0
77749;BME280;66938;52.084;5.228;2024-01-30T01:59:46;102633.99999999999;;;8.56;100.0
77749;BME280;66938;52.084;5.228;2024-01-30T02:01:24;102640.00000000001;;;8.63;100.0
77749;BME280;66938;52.084;5.228;2024-01-30T02:03:02;102639.00000000001;;;8.6;100.0
77749;BME280;66938;52.084;5.228;2024-01-30T02:06:17;102639.00000000001;;;8.63;100.0
77749;BME280;66938;52.084;5.228;2024-01-30T02:07:54;102643.0;;;8.64;100.0
77749;BME280;66938;52.084;5.228;2024-01-30T02:09:31;102644.0;;;8.58;100.0
77749;BME280;66938;52.084;5.228;2024-01-30T02:12:43;102633.99999999999;;;8.6;100.0
77749;BME280;66938;52.084;5.228;2024-01-30T02:14:19;102636.99999999999;;;8.61;100.0
77749;BME280;66938;52.084;5.228;2024-01-30T02:15:55;102636.99999999999;;;8.66;100.0
77749;BME280;66938;52.084;5.228;2024-01-30T02:19:07;102640.00000000001;;;8.64;100.0
77749;BME280;66938;52.084;5.228;2024-01-30T02:20:43;102648.0;;;8.58;100.0
77749;BME280;66938;52.084;5.228;2024-01-30T02:22:20;102658.99999999999;;;8.51;100.0
77749;BME280;66938;52.084;5.228;2024-01-30T02:23:58;102659.99999999999;;;8.44;100.0
77749;BME280;66938;52.084;5.228;2024-01-30T02:27:15;102653.0;;;8.43;100.0
77749;BME280;66938;52.084;5.228;2024-01-30T02:28:51;102654.0;;;8.39;100.0
77749;BME280;66938;52.084;5.228;2024-01-30T02:30:27;102646.0;;;8.44;100.0
77749;BME280;66938;52.084;5.228;2024-01-30T02:33:40;102649.0;;;8.43;100.0
77749;BME280;66938;52.084;5.228;2024-01-30T02:35:16;102653.0;;;8.39;100.0
77749;BME280;66938;52.084;5.228;2024-01-30T02:36:52;102650.0;;;8.35;100.0
77749;BME280;66938;52.084;5.228;2024-01-30T02:40:06;102642.0;;;8.35;100.0
77749;BME280;66938;52.084;5.228;2024-01-30T02:41:43;102638.00000000001;;;8.42;100.0
77749;BME280;66938;52.084;5.228;2024-01-30T02:43:19;102623.0;;;8.48;100.0
77749;BME280;66938;52.084;5.228;2024-01-30T02:44:55;102625.0;;;8.52;100.0
77749;BME280;66938;52.084;5.228;2024-01-30T02:48:07;102627.0;;;8.53;100.0
77749;BME280;66938;52.084;5.228;2024-01-30T02:49:43;102625.0;;;8.48;100.0
77749;BME280;66938;52.084;5.228;2024-01-30T02:51:20;102626.0;;;8.47;100.0
77749;BME280;66938;52.084;5.228;2024-01-30T02:54:35;102619.0;;;8.48;100.0
77749;BME280;66938;52.084;5.228;2024-01-30T02:56:11;102617.0;;;8.52;100.0
77749;BME280;66938;52.084;5.228;2024-01-30T02:57:47;102626.0;;;8.5;100.0
77749;BME280;66938;52.084;5.228;2024-01-30T03:00:59;102624.0;;;8.5;100.0
77749;BME280;66938;52.084;5.228;2024-01-30T03:02:36;102620.0;;;8.52;100.0
77749;BME280;66938;52.084;5.228;2024-01-30T03:04:12;102621.0;;;8.52;100.0
77749;BME280;66938;52.084;5.228;2024-01-30T03:05:49;102614.00000000001;;;8.56;100.0
77749;BME280;66938;52.084;5.228;2024-01-30T03:09:01;102615.00000000001;;;8.59;100.0
77749;BME280;66938;52.084;5.228;2024-01-30T03:10:37;102609.99999999999;;;8.68;100.0
77749;BME280;66938;52.084;5.228;2024-01-30T03:12:13;102607.0;;;8.73;100.0
77749;BME280;66938;52.084;5.228;2024-01-30T03:15:25;102607.0;;;8.73;100.0
77749;BME280;66938;52.084;5.228;2024-01-30T03:17:02;102607.0;;;8.73;100.0
77749;BME280;66938;52.084;5.228;2024-01-30T03:18:38;102606.0;;;8.73;100.0
77749;BME280;66938;52.084;5.228;2024-01-30T03:21:50;102603.0;;;8.71;100.0
77749;BME280;66938;52.084;5.228;2024-01-30T03:23:26;102608.0;;;8.64;100.0
77749;BME280;66938;52.084;5.228;2024-01-30T03:25:03;102606.0;;;8.56;100.0
77749;BME280;66938;52.084;5.228;2024-01-30T03:28:15;102611.99999999999;;;8.51;100.0
77749;BME280;66938;52.084;5.228;2024-01-30T03:29:51;102608.0;;;8.49;100.0
77749;BME280;66938;52.084;5.228;2024-01-30T03:31:27;102600.0;;;8.59;100.0
77749;BME280;66938;52.084;5.228;2024-01-30T03:33:04;102596.0;;;8.66;100.0
77749;BME280;66938;52.084;5.228;2024-01-30T03:36:16;102592.0;;;8.68;100.0
77749;BME280;66938;52.084;5.228;2024-01-30T03:37:52;102590.00000000001;;;8.66;100.0
77749;BME280;66938;52.084;5.228;2024-01-30T03:39:28;102583.99999999999;;;8.73;100.0
77749;BME280;66938;52.084;5.228;2024-01-30T03:42:43;102581.0;;;8.77;100.0
77749;BME280;66938;52.084;5.228;2024-01-30T03:44:19;102580.0;;;8.85;100.0
77749;BME280;66938;52.084;5.228;2024-01-30T03:45:55;102578.0;;;8.89;100.0
77749;BME280;66938;52.084;5.228;2024-01-30T03:49:09;102574.0;;;8.9;100.0
77749;BME280;66938;52.084;5.228;2024-01-30T03:50:46;102578.0;;;8.94;100.0
77749;BME280;66938;52.084;5.228;2024-01-30T03:52:22;102582.0;;;8.91;100.0
77749;BME280;66938;52.084;5.228;2024-01-30T03:53:58;102586.99999999999;;;8.9;100.0
77749;BME280;66938;52.084;5.228;2024-01-30T03:57:11;102588.00000000001;;;8.92;100.0
77749;BME280;66938;52.084;5.228;2024-01-30T03:58:46;102590.00000000001;;;8.88;100.0
77749;BME280;66938;52.084;5.228;2024-01-30T04:00:22;102584.99999999999;;;8.84;100.0
77749;BME280;66938;52.084;5.228;2024-01-30T04:03:36;102592.0;;;8.77;100.0
77749;BME280;66938;52.084;5.228;2024-01-30T04:05:12;102599.0;;;8.74;100.0
77749;BME280;66938;52.084;5.228;2024-01-30T04:06:48;102596.0;;;8.75;100.0
77749;BME280;66938;52.084;5.228;2024-01-30T04:10:00;102599.0;;;8.81;100.0
77749;BME280;66938;52.084;5.228;2024-01-30T04:11:36;102602.0;;;8.82;100.0
77749;BME280;66938;52.084;5.228;2024-01-30T04:13:12;102597.0;;;8.83;100.0
77749;BME280;66938;52.084;5.228;2024-01-30T04:14:48;102602.0;;;8.8;100.0
77749;BME280;66938;52.084;5.228;2024-01-30T04:18:01;102588.00000000001;;;8.81;100.0
77749;BME280;66938;52.084;5.228;2024-01-30T04:19:37;102586.99999999999;;;8.86;100.0
77749;BME280;66938;52.084;5.228;2024-01-30T04:21:13;102592.0;;;8.89;100.0
77749;BME280;66938;52.084;5.228;2024-01-30T04:24:25;102579.0;;;8.97;100.0
77749;BME280;66938;52.084;5.228;2024-01-30T04:26:01;102579.0;;;8.99;100.0
77749;BME280;66938;52.084;5.228;2024-01-30T04:27:38;102583.99999999999;;;8.91;100.0
77749;BME280;66938;52.084;5.228;2024-01-30T04:30:50;102578.0;;;8.84;100.0
77749;BME280;66938;52.084;5.228;2024-01-30T04:32:26;102575.0;;;8.85;100.0
77749;BME280;66938;52.084;5.228;2024-01-30T04:34:02;102571.0;;;8.98;100.0
77749;BME280;66938;52.084;5.228;2024-01-30T04:37:14;102555.0;;;8.97;100.0
77749;BME280;66938;52.084;5.228;2024-01-30T04:38:50;102556.0;;;9.06;100.0
77749;BME280;66938;52.084;5.228;2024-01-30T04:40:27;102559.99999999999;;;8.99;100.0
77749;BME280;66938;52.084;5.228;2024-01-30T04:42:03;102564.00000000001;;;8.94;100.0
77749;BME280;66938;52.084;5.228;2024-01-30T04:45:16;102567.0;;;8.96;100.0
77749;BME280;66938;52.084;5.228;2024-01-30T04:46:52;102569.0;;;8.84;100.0
77749;BME280;66938;52.084;5.228;2024-01-30T04:48:28;102567.0;;;8.82;100.0
77749;BME280;66938;52.084;5.228;2024-01-30T04:51:41;102566.00000000001;;;8.8;100.0
77749;BME280;66938;52.084;5.228;2024-01-30T04:53:17;102566.00000000001;;;8.76;100.0
77749;BME280;66938;52.084;5.228;2024-01-30T04:54:54;102567.0;;;8.76;100.0
77749;BME280;66938;52.084;5.228;2024-01-30T04:58:09;102564.00000000001;;;8.8;100.0
77749;BME280;66938;52.084;5.228;2024-01-30T04:59:45;102557.0;;;8.91;100.0
77749;BME280;66938;52.084;5.228;2024-01-30T05:01:21;102555.0;;;8.97;100.0
77749;BME280;66938;52.084;5.228;2024-01-30T05:02:57;102564.00000000001;;;8.96;100.0
77749;BME280;66938;52.084;5.228;2024-01-30T05:06:09;102570.0;;;9.02;100.0
77749;BME280;66938;52.084;5.228;2024-01-30T05:07:46;102561.99999999999;;;9.03;100.0
77749;BME280;66938;52.084;5.228;2024-01-30T05:09:22;102561.99999999999;;;9.07;100.0
77749;BME280;66938;52.084;5.228;2024-01-30T05:12:36;102558.99999999999;;;9.02;100.0
77749;BME280;66938;52.084;5.228;2024-01-30T05:14:12;102565.00000000001;;;9.07;100.0
77749;BME280;66938;52.084;5.228;2024-01-30T05:15:48;102558.99999999999;;;9.08;100.0
77749;BME280;66938;52.084;5.228;2024-01-30T05:19:00;102554.0;;;9.11;100.0
77749;BME280;66938;52.084;5.228;2024-01-30T05:20:37;102546.0;;;9.1;100.0
77749;BME280;66938;52.084;5.228;2024-01-30T05:22:13;102545.0;;;9.16;100.0
77749;BME280;66938;52.084;5.228;2024-01-30T05:23:49;102545.0;;;9.18;100.0
77749;BME280;66938;52.084;5.228;2024-01-30T05:27:01;102534.99999999999;;;9.17;100.0
77749;BME280;66938;52.084;5.228;2024-01-30T05:28:37;102533.99999999999;;;9.21;100.0
77749;BME280;66938;52.084;5.228;2024-01-30T05:30:14;102543.0;;;9.19;100.0
77749;BME280;66938;52.084;5.228;2024-01-30T05:33:26;102556.0;;;9.16;100.0
77749;BME280;66938;52.084;5.228;2024-01-30T05:35:02;102556.0;;;9.13;100.0
77749;BME280;66938;52.084;5.228;2024-01-30T05:36:38;102558.0;;;9.1;100.0
77749;BME280;66938;52.084;5.228;2024-01-30T05:39:52;102554.0;;;9.07;100.0
77749;BME280;66938;52.084;5.228;2024-01-30T05:41:28;102546.0;;;9.08;100.0
77749;BME280;66938;52.084;5.228;2024-01-30T05:43:04;102546.0;;;9.15;100.0
77749;BME280;66938;52.084;5.228;2024-01-30T05:46:16;102550.0;;;9.17;100.0
77749;BME280;66938;52.084;5.228;2024-01-30T05:47:53;102550.0;;;9.14;100.0
77749;BME280;66938;52.084;5.228;2024-01-30T05:49:32;102552.0;;;9.11;100.0
77749;BME280;66938;52.084;5.228;2024-01-30T05:51:08;102557.0;;;9.06;100.0
77749;BME280;66938;52.084;5.228;2024-01-30T05:54:20;102554.0;;;9.01;100.0
77749;BME280;66938;52.084;5.228;2024-01-30T05:55:56;102556.0;;;9.06;100.0
77749;BME280;66938;52.084;5.228;2024-01-30T05:57:32;102549.0;;;9.07;100.0
77749;BME280;66938;52.084;5.228;2024-01-30T06:00:45;102556.0;;;9.13;100.0
77749;BME280;66938;52.084;5.228;2024-01-30T06:02:21;102553.0;;;9.11;100.0
77749;BME280;66938;52.084;5.228;2024-01-30T06:03:57;102555.0;;;9.14;100.0
77749;BME280;66938;52.084;5.228;2024-01-30T06:07:09;102558.99999999999;;;9.15;100.0
77749;BME280;66938;52.084;5.228;2024-01-30T06:08:45;102555.0;;;9.23;100.0
77749;BME280;66938;52.084;5.228;2024-01-30T06:10:21;102550.0;;;9.27;100.0
77749;BME280;66938;52.084;5.228;2024-01-30T06:12:00;102552.0;;;9.28;100.0
77749;BME280;66938;52.084;5.228;2024-01-30T06:15:13;102558.99999999999;;;9.26;100.0
77749;BME280;66938;52.084;5.228;2024-01-30T06:16:49;102552.0;;;9.25;100.0
77749;BME280;66938;52.084;5.228;2024-01-30T06:18:25;102551.0;;;9.23;100.0
77749;BME280;66938;52.084;5.228;2024-01-30T06:21:37;102558.0;;;9.23;100.0
77749;BME280;66938;52.084;5.228;2024-01-30T06:23:13;102563.00000000001;;;9.21;100.0
77749;BME280;66938;52.084;5.228;2024-01-30T06:24:49;102558.0;;;9.23;100.0
77749;BME280;66938;52.084;5.228;2024-01-30T06:28:01;102555.0;;;9.24;100.0
77749;BME280;66938;52.084;5.228;2024-01-30T06:29:37;102566.00000000001;;;9.18;100.0
77749;BME280;66938;52.084;5.228;2024-01-30T06:31:14;102565.00000000001;;;9.22;100.0
77749;BME280;66938;52.084;5.228;2024-01-30T06:34:26;102566.00000000001;;;9.28;100.0
77749;BME280;66938;52.084;5.228;2024-01-30T06:36:02;102565.00000000001;;;9.3;100.0
77749;BME280;66938;52.084;5.228;2024-01-30T06:37:38;102573.0;;;9.38;100.0
77749;BME280;66938;52.084;5.228;2024-01-30T06:39:14;102573.0;;;9.43;100.0
77749;BME280;66938;52.084;5.228;2024-01-30T06:42:26;102577.0;;;9.41;100.0
77749;BME280;66938;52.084;5.228;2024-01-30T06:44:03;102579.0;;;9.43;100.0
77749;BME280;66938;52.084;5.228;2024-01-30T06:45:39;102577.0;;;9.44;100.0
77749;BME280;66938;52.084;5.228;2024-01-30T06:48:51;102577.0;;;9.46;100.0
77749;BME280;66938;52.084;5.228;2024-01-30T06:50:27;102569.0;;;9.53;100.0
77749;BME280;66938;52.084;5.228;2024-01-30T06:52:04;102572.0;;;9.55;100.0
77749;BME280;66938;52.084;5.228;2024-01-30T06:55:16;102570.0;;;9.57;100.0
77749;BME280;66938;52.084;5.228;2024-01-30T06:56:53;102580.0;;;9.63;100.0
77749;BME280;66938;52.084;5.228;2024-01-30T06:58:29;102579.0;;;9.64;100.0
77749;BME280;66938;52.084;5.228;2024-01-30T07:00:06;102575.0;;;9.63;100.0
77749;BME280;66938;52.084;5.228;2024-01-30T07:03:19;102571.0;;;9.64;100.0
77749;BME280;66938;52.084;5.228;2024-01-30T07:04:55;102572.0;;;9.72;100.0
77749;BME280;66938;52.084;5.228;2024-01-30T07:06:31;102564.00000000001;;;9.67;100.0
77749;BME280;66938;52.084;5.228;2024-01-30T07:09:43;102567.0;;;9.71;100.0
77749;BME280;66938;52.084;5.228;2024-01-30T07:11:19;102573.0;;;9.75;100.0
77749;BME280;66938;52.084;5.228;2024-01-30T07:12:55;102573.0;;;9.83;100.0
77749;BME280;66938;52.084;5.228;2024-01-30T07:16:07;102571.0;;;9.9;100.0
77749;BME280;66938;52.084;5.228;2024-01-30T07:17:44;102572.0;;;9.97;100.0
77749;BME280;66938;52.084;5.228;2024-01-30T07:19:20;102575.0;;;9.98;100.0
77749;BME280;66938;52.084;5.228;2024-01-30T07:22:32;102573.0;;;10.02;100.0
77749;BME280;66938;52.084;5.228;2024-01-30T07:24:09;102582.0;;;10.02;100.0
77749;BME280;66938;52.084;5.228;2024-01-30T07:25:45;102582.0;;;10.02;100.0
77749;BME280;66938;52.084;5.228;2024-01-30T07:27:21;102577.0;;;10.01;100.0
77749;BME280;66938;52.084;5.228;2024-01-30T07:30:33;102580.0;;;10.08;100.0
77749;BME280;66938;52.084;5.228;2024-01-30T07:32:10;102586.99999999999;;;10.05;100.0
77749;BME280;66938;52.084;5.228;2024-01-30T07:35:22;102593.0;;;10.11;100.0
77749;BME280;66938;52.084;5.228;2024-01-30T07:36:58;102595.0;;;10.13;100.0
77749;BME280;66938;52.084;5.228;2024-01-30T07:38:34;102605.0;;;10.23;100.0
77749;BME280;66938;52.084;5.228;2024-01-30T07:41:46;102603.0;;;10.25;100.0
77749;BME280;66938;52.084;5.228;2024-01-30T07:43:22;102607.0;;;10.29;100.0
77749;BME280;66938;52.084;5.228;2024-01-30T07:44:58;102609.99999999999;;;10.25;100.0
77749;BME280;66938;52.084;5.228;2024-01-30T07:46:34;102609.99999999999;;;10.3;100.0
77749;BME280;66938;52.084;5.228;2024-01-30T07:49:47;102615.00000000001;;;10.38;100.0
77749;BME280;66938;52.084;5.228;2024-01-30T07:51:23;102619.0;;;10.37;100.0
77749;BME280;66938;52.084;5.228;2024-01-30T07:53:00;102611.99999999999;;;10.4;100.0
77749;BME280;66938;52.084;5.228;2024-01-30T07:56:26;102613.00000000001;;;10.42;100.0
77749;BME280;66938;52.084;5.228;2024-01-30T07:58:03;102614.00000000001;;;10.49;100.0
77749;BME280;66938;52.084;5.228;2024-01-30T07:59:38;102617.0;;;10.44;100.0
77749;BME280;66938;52.084;5.228;2024-01-30T08:01:15;102620.0;;;10.59;100.0
77749;BME280;66938;52.084;5.228;2024-01-30T08:04:29;102624.0;;;10.61;100.0
77749;BME280;66938;52.084;5.228;2024-01-30T08:06:05;102616.00000000001;;;10.58;100.0
77749;BME280;66938;52.084;5.228;2024-01-30T08:07:42;102617.0;;;10.61;100.0
77749;BME280;66938;52.084;5.228;2024-01-30T08:10:54;102619.0;;;10.72;100.0
77749;BME280;66938;52.084;5.228;2024-01-30T08:12:30;102617.0;;;10.66;100.0
77749;BME280;66938;52.084;5.228;2024-01-30T08:14:06;102615.00000000001;;;10.76;100.0
77749;BME280;66938;52.084;5.228;2024-01-30T08:17:19;102617.0;;;10.81;100.0
77749;BME280;66938;52.084;5.228;2024-01-30T08:18:55;102616.00000000001;;;10.82;100.0
77749;BME280;66938;52.084;5.228;2024-01-30T08:20:31;102617.0;;;10.85;100.0
77749;BME280;66938;52.084;5.228;2024-01-30T08:23:43;102617.0;;;10.88;100.0
77749;BME280;66938;52.084;5.228;2024-01-30T08:25:19;102617.0;;;10.84;100.0
77749;BME280;66938;52.084;5.228;2024-01-30T08:26:55;102622.0;;;10.92;100.0
77749;BME280;66938;52.084;5.228;2024-01-30T08:28:31;102623.0;;;10.88;100.0
77749;BME280;66938;52.084;5.228;2024-01-30T08:31:44;102617.0;;;10.88;100.0
77749;BME280;66938;52.084;5.228;2024-01-30T08:33:21;102618.0;;;10.99;100.0
77749;BME280;66938;52.084;5.228;2024-01-30T08:34:57;102617.0;;;11.04;100.0
77749;BME280;66938;52.084;5.228;2024-01-30T08:38:09;102611.99999999999;;;11.03;100.0
77749;BME280;66938;52.084;5.228;2024-01-30T08:39:45;102611.99999999999;;;11.11;100.0
77749;BME280;66938;52.084;5.228;2024-01-30T08:41:21;102613.00000000001;;;11.08;100.0
77749;BME280;66938;52.084;5.228;2024-01-30T08:44:33;102616.00000000001;;;11.16;100.0
77749;BME280;66938;52.084;5.228;2024-01-30T08:46:10;102619.0;;;11.12;100.0
77749;BME280;66938;52.084;5.228;2024-01-30T08:47:46;102620.0;;;11.22;100.0
77749;BME280;66938;52.084;5.228;2024-01-30T08:49:22;102616.00000000001;;;11.19;100.0
77749;BME280;66938;52.084;5.228;2024-01-30T08:52:34;102622.0;;;11.28;100.0
77749;BME280;66938;52.084;5.228;2024-01-30T08:54:10;102620.0;;;11.43;100.0
77749;BME280;66938;52.084;5.228;2024-01-30T08:55:46;102623.0;;;11.48;100.0
77749;BME280;66938;52.084;5.228;2024-01-30T08:58:58;102629.0;;;11.45;100.0
77749;BME280;66938;52.084;5.228;2024-01-30T09:00:34;102631.0;;;11.52;100.0
77749;BME280;66938;52.084;5.228;2024-01-30T09:02:09;102625.0;;;11.53;100.0
77749;BME280;66938;52.084;5.228;2024-01-30T09:05:22;102628.0;;;11.56;100.0
77749;BME280;66938;52.084;5.228;2024-01-30T09:06:58;102629.0;;;11.63;100.0
77749;BME280;66938;52.084;5.228;2024-01-30T09:08:34;102634.99999999999;;;11.65;100.0
77749;BME280;66938;52.084;5.228;2024-01-30T09:11:46;102627.0;;;11.68;100.0
77749;BME280;66938;52.084;5.228;2024-01-30T09:13:22;102628.0;;;11.65;100.0
77749;BME280;66938;52.084;5.228;2024-01-30T09:14:58;102638.00000000001;;;11.67;100.0
77749;BME280;66938;52.084;5.228;2024-01-30T09:16:34;102641.00000000001;;;11.68;100.0
77749;BME280;66938;52.084;5.228;2024-01-30T09:19:47;102636.99999999999;;;11.64;100.0
77749;BME280;66938;52.084;5.228;2024-01-30T09:21:23;102643.0;;;11.7;100.0
77749;BME280;66938;52.084;5.228;2024-01-30T09:23:04;102639.00000000001;;;11.65;100.0
77749;BME280;66938;52.084;5.228;2024-01-30T09:26:16;102648.0;;;11.73;100.0
77749;BME280;66938;52.084;5.228;2024-01-30T09:27:52;102645.0;;;11.73;100.0
77749;BME280;66938;52.084;5.228;2024-01-30T09:29:28;102642.0;;;11.76;100.0
77749;BME280;66938;52.084;5.228;2024-01-30T09:32:45;102643.0;;;11.67;100.0
77749;BME280;66938;52.084;5.228;2024-01-30T09:34:22;102649.0;;;11.59;100.0
77749;BME280;66938;52.084;5.228;2024-01-30T09:35:58;102648.0;;;11.61;100.0
77749;BME280;66938;52.084;5.228;2024-01-30T09:37:34;102645.0;;;11.63;100.0
77749;BME280;66938;52.084;5.228;2024-01-30T09:40:52;102646.0;;;11.7;100.0
77749;BME280;66938;52.084;5.228;2024-01-30T09:42:33;102648.0;;;11.64;100.0
77749;BME280;66938;52.084;5.228;2024-01-30T09:44:11;102650.0;;;11.7;100.0
77749;BME280;66938;52.084;5.228;2024-01-30T09:47:26;102657.0;;;11.81;100.0
77749;BME280;66938;52.084;5.228;2024-01-30T09:49:03;102655.0;;;11.78;100.0
77749;BME280;66938;52.084;5.228;2024-01-30T09:50:40;102663.00000000001;;;11.77;100.0
77749;BME280;66938;52.084;5.228;2024-01-30T09:52:17;102653.0;;;11.82;100.0
77749;BME280;66938;52.084;5.228;2024-01-30T09:55:30;102665.00000000001;;;11.82;100.0
77749;BME280;66938;52.084;5.228;2024-01-30T09:57:06;102671.0;;;11.8;100.0
77749;BME280;66938;52.084;5.228;2024-01-30T09:58:42;102664.00000000001;;;11.85;100.0
77749;BME280;66938;52.084;5.228;2024-01-30T10:01:55;102664.00000000001;;;11.92;100.0
77749;BME280;66938;52.084;5.228;2024-01-30T10:03:32;102665.00000000001;;;11.89;100.0
77749;BME280;66938;52.084;5.228;2024-01-30T10:05:08;102674.0;;;11.82;100.0
77749;BME280;66938;52.084;5.228;2024-01-30T10:06:44;102672.0;;;11.88;100.0
77749;BME280;66938;52.084;5.228;2024-01-30T10:09:56;102671.0;;;11.87;100.0
77749;BME280;66938;52.084;5.228;2024-01-30T10:11:32;102667.0;;;11.83;100.0
77749;BME280;66938;52.084;5.228;2024-01-30T10:13:08;102663.00000000001;;;11.93;100.0
77749;BME280;66938;52.084;5.228;2024-01-30T10:16:20;102654.0;;;12.02;100.0
77749;BME280;66938;52.084;5.228;2024-01-30T10:17:57;102658.0;;;12.13;100.0
77749;BME280;66938;52.084;5.228;2024-01-30T10:19:37;102665.00000000001;;;12.02;100.0
77749;BME280;66938;52.084;5.228;2024-01-30T10:22:49;102661.99999999999;;;12.08;100.0
77749;BME280;66938;52.084;5.228;2024-01-30T10:24:25;102667.0;;;12.14;100.0
77749;BME280;66938;52.084;5.228;2024-01-30T10:26:02;102651.0;;;12.22;100.0
77749;BME280;66938;52.084;5.228;2024-01-30T10:27:39;102652.0;;;12.11;100.0
77749;BME280;66938;52.084;5.228;2024-01-30T10:30:58;102645.0;;;12.11;100.0
77749;BME280;66938;52.084;5.228;2024-01-30T10:32:34;102652.0;;;12.22;100.0
77749;BME280;66938;52.084;5.228;2024-01-30T10:34:11;102659.99999999999;;;12.16;100.0
77749;BME280;66938;52.084;5.228;2024-01-30T10:37:25;102666.00000000001;;;12.19;100.0
77749;BME280;66938;52.084;5.228;2024-01-30T10:39:02;102666.00000000001;;;12.19;100.0
77749;BME280;66938;52.084;5.228;2024-01-30T10:40:39;102665.00000000001;;;12.22;100.0
77749;BME280;66938;52.084;5.228;2024-01-30T10:43:58;102667.0;;;12.14;100.0
77749;BME280;66938;52.084;5.228;2024-01-30T10:45:39;102678.0;;;12.13;100.0
77749;BME280;66938;52.084;5.228;2024-01-30T10:47:26;102672.0;;;12.19;100.0